sensor_id;sensor_type;location;lat;lon;timestamp;P1;durP1;ratioP1;P2;durP2;ratioP2
67108;SDS011;54027;50.786;7.058;2023-05-07T00:01:46;6.53;;;4.82;;
67108;SDS011;54027;50.786;7.058;2023-05-07T00:04:11;6.93;;;4.57;;
67108;SDS011;54027;50.786;7.058;2023-05-07T00:06:38;6.15;;;4.90;;
67108;SDS011;54027;50.786;7.058;2023-05-07T00:09:03;6.72;;;4.85;;
67108;SDS011;54027;50.786;7.058;2023-05-07T00:11:29;7.47;;;5.05;;
67108;SDS011;54027;50.786;7.058;2023-05-07T00:13:54;9.65;;;5.50;;
67108;SDS011;54027;50.786;7.058;2023-05-07T00:16:20;9.07;;;4.82;;
67108;SDS011;54027;50.786;7.058;2023-05-07T00:18:45;7.72;;;4.75;;
67108;SDS011;54027;50.786;7.058;2023-05-07T00:21:11;6.72;;;4.78;;
67108;SDS011;54027;50.786;7.058;2023-05-07T00:23:36;10.02;;;5.05;;
67108;SDS011;54027;50.786;7.058;2023-05-07T00:26:02;6.82;;;5.25;;
67108;SDS011;54027;50.786;7.058;2023-05-07T00:28:28;6.68;;;5.03;;
67108;SDS011;54027;50.786;7.058;2023-05-07T00:30:53;5.80;;;4.65;;
67108;SDS011;54027;50.786;7.058;2023-05-07T00:33:19;6.03;;;4.90;;
67108;SDS011;54027;50.786;7.058;2023-05-07T00:35:45;6.25;;;4.60;;
67108;SDS011;54027;50.786;7.058;2023-05-07T00:38:11;5.18;;;3.88;;
67108;SDS011;54027;50.786;7.058;2023-05-07T00:40:36;5.70;;;4.57;;
67108;SDS011;54027;50.786;7.058;2023-05-07T00:43:01;9.52;;;4.97;;
67108;SDS011;54027;50.786;7.058;2023-05-07T00:45:27;6.40;;;5.30;;
67108;SDS011;54027;50.786;7.058;2023-05-07T00:47:57;8.50;;;4.72;;
67108;SDS011;54027;50.786;7.058;2023-05-07T00:50:24;6.93;;;4.50;;
67108;SDS011;54027;50.786;7.058;2023-05-07T00:52:50;11.20;;;5.70;;
67108;SDS011;54027;50.786;7.058;2023-05-07T00:55:16;6.07;;;4.45;;
67108;SDS011;54027;50.786;7.058;2023-05-07T00:57:42;8.88;;;5.03;;
67108;SDS011;54027;50.786;7.058;2023-05-07T01:00:09;4.60;;;4.05;;
67108;SDS011;54027;50.786;7.058;2023-05-07T01:02:37;6.05;;;4.32;;
67108;SDS011;54027;50.786;7.058;2023-05-07T01:05:03;6.15;;;4.63;;
67108;SDS011;54027;50.786;7.058;2023-05-07T01:07:31;7.85;;;4.90;;
67108;SDS011;54027;50.786;7.058;2023-05-07T01:09:58;6.18;;;4.68;;
67108;SDS011;54027;50.786;7.058;2023-05-07T01:12:24;4.93;;;4.43;;
67108;SDS011;54027;50.786;7.058;2023-05-07T01:14:50;6.53;;;4.60;;
67108;SDS011;54027;50.786;7.058;2023-05-07T01:17:16;8.70;;;5.22;;
67108;SDS011;54027;50.786;7.058;2023-05-07T01:19:43;6.70;;;5.47;;
67108;SDS011;54027;50.786;7.058;2023-05-07T01:22:09;8.23;;;4.95;;
67108;SDS011;54027;50.786;7.058;2023-05-07T01:24:36;5.40;;;4.50;;
67108;SDS011;54027;50.786;7.058;2023-05-07T01:27:02;9.73;;;5.10;;
67108;SDS011;54027;50.786;7.058;2023-05-07T01:29:28;8.68;;;5.00;;
67108;SDS011;54027;50.786;7.058;2023-05-07T01:31:54;6.78;;;4.72;;
67108;SDS011;54027;50.786;7.058;2023-05-07T01:34:22;5.22;;;4.40;;
67108;SDS011;54027;50.786;7.058;2023-05-07T01:36:50;5.72;;;4.40;;
67108;SDS011;54027;50.786;7.058;2023-05-07T01:39:17;13.05;;;4.55;;
67108;SDS011;54027;50.786;7.058;2023-05-07T01:41:43;6.97;;;4.90;;
67108;SDS011;54027;50.786;7.058;2023-05-07T01:44:08;5.85;;;4.25;;
67108;SDS011;54027;50.786;7.058;2023-05-07T01:46:36;6.00;;;4.40;;
67108;SDS011;54027;50.786;7.058;2023-05-07T01:49:01;8.63;;;4.40;;
67108;SDS011;54027;50.786;7.058;2023-05-07T01:51:27;5.57;;;4.22;;
67108;SDS011;54027;50.786;7.058;2023-05-07T01:53:52;9.85;;;4.68;;
67108;SDS011;54027;50.786;7.058;2023-05-07T01:56:18;5.53;;;4.20;;
67108;SDS011;54027;50.786;7.058;2023-05-07T01:58:45;5.28;;;4.38;;
67108;SDS011;54027;50.786;7.058;2023-05-07T02:01:12;10.38;;;6.18;;
67108;SDS011;54027;50.786;7.058;2023-05-07T02:03:38;6.38;;;5.13;;
67108;SDS011;54027;50.786;7.058;2023-05-07T02:06:04;8.77;;;6.03;;
67108;SDS011;54027;50.786;7.058;2023-05-07T02:08:30;7.45;;;5.93;;
67108;SDS011;54027;50.786;7.058;2023-05-07T02:10:55;7.63;;;5.57;;
67108;SDS011;54027;50.786;7.058;2023-05-07T02:13:21;7.57;;;5.60;;
67108;SDS011;54027;50.786;7.058;2023-05-07T02:15:47;8.45;;;6.22;;
67108;SDS011;54027;50.786;7.058;2023-05-07T02:18:15;9.20;;;6.53;;
67108;SDS011;54027;50.786;7.058;2023-05-07T02:20:42;10.35;;;7.28;;
67108;SDS011;54027;50.786;7.058;2023-05-07T02:23:07;10.77;;;7.80;;
67108;SDS011;54027;50.786;7.058;2023-05-07T02:25:33;11.68;;;7.07;;
67108;SDS011;54027;50.786;7.058;2023-05-07T02:27:58;10.02;;;6.82;;
67108;SDS011;54027;50.786;7.058;2023-05-07T02:30:24;9.00;;;5.93;;
67108;SDS011;54027;50.786;7.058;2023-05-07T02:32:50;9.75;;;5.93;;
67108;SDS011;54027;50.786;7.058;2023-05-07T02:35:16;6.35;;;4.55;;
67108;SDS011;54027;50.786;7.058;2023-05-07T02:37:41;6.13;;;4.45;;
67108;SDS011;54027;50.786;7.058;2023-05-07T02:40:07;7.85;;;4.43;;
67108;SDS011;54027;50.786;7.058;2023-05-07T02:42:32;7.50;;;5.15;;
67108;SDS011;54027;50.786;7.058;2023-05-07T02:44:58;6.65;;;5.13;;
67108;SDS011;54027;50.786;7.058;2023-05-07T02:47:24;8.48;;;4.85;;
67108;SDS011;54027;50.786;7.058;2023-05-07T02:49:52;6.43;;;5.07;;
67108;SDS011;54027;50.786;7.058;2023-05-07T02:52:18;6.93;;;5.15;;
67108;SDS011;54027;50.786;7.058;2023-05-07T02:54:43;8.38;;;4.97;;
67108;SDS011;54027;50.786;7.058;2023-05-07T02:57:08;8.73;;;4.88;;
67108;SDS011;54027;50.786;7.058;2023-05-07T02:59:34;5.88;;;4.55;;
67108;SDS011;54027;50.786;7.058;2023-05-07T03:01:59;9.63;;;5.32;;
67108;SDS011;54027;50.786;7.058;2023-05-07T03:04:24;6.15;;;5.03;;
67108;SDS011;54027;50.786;7.058;2023-05-07T03:06:50;6.78;;;5.07;;
67108;SDS011;54027;50.786;7.058;2023-05-07T03:09:16;7.32;;;4.35;;
67108;SDS011;54027;50.786;7.058;2023-05-07T03:11:41;5.80;;;4.57;;
67108;SDS011;54027;50.786;7.058;2023-05-07T03:14:07;6.63;;;4.68;;
67108;SDS011;54027;50.786;7.058;2023-05-07T03:16:32;7.75;;;4.93;;
67108;SDS011;54027;50.786;7.058;2023-05-07T03:18:58;6.20;;;4.95;;
67108;SDS011;54027;50.786;7.058;2023-05-07T03:21:23;5.05;;;3.72;;
67108;SDS011;54027;50.786;7.058;2023-05-07T03:23:48;6.50;;;4.63;;
67108;SDS011;54027;50.786;7.058;2023-05-07T03:26:14;6.10;;;4.70;;
67108;SDS011;54027;50.786;7.058;2023-05-07T03:28:39;7.60;;;5.00;;
67108;SDS011;54027;50.786;7.058;2023-05-07T03:31:05;7.70;;;4.88;;
67108;SDS011;54027;50.786;7.058;2023-05-07T03:33:32;8.20;;;5.15;;
67108;SDS011;54027;50.786;7.058;2023-05-07T03:35:58;6.00;;;4.20;;
67108;SDS011;54027;50.786;7.058;2023-05-07T03:38:24;6.18;;;4.28;;
67108;SDS011;54027;50.786;7.058;2023-05-07T03:40:49;8.15;;;4.70;;
67108;SDS011;54027;50.786;7.058;2023-05-07T03:43:15;8.85;;;4.75;;
67108;SDS011;54027;50.786;7.058;2023-05-07T03:45:41;4.95;;;4.43;;
67108;SDS011;54027;50.786;7.058;2023-05-07T03:48:07;11.10;;;4.43;;
67108;SDS011;54027;50.786;7.058;2023-05-07T03:50:32;6.03;;;4.60;;
67108;SDS011;54027;50.786;7.058;2023-05-07T03:52:58;5.95;;;4.85;;
67108;SDS011;54027;50.786;7.058;2023-05-07T03:55:23;5.45;;;4.28;;
67108;SDS011;54027;50.786;7.058;2023-05-07T03:57:49;5.55;;;4.22;;
67108;SDS011;54027;50.786;7.058;2023-05-07T04:00:14;6.00;;;4.25;;
67108;SDS011;54027;50.786;7.058;2023-05-07T04:02:40;7.38;;;4.43;;
67108;SDS011;54027;50.786;7.058;2023-05-07T04:05:05;6.10;;;3.63;;
67108;SDS011;54027;50.786;7.058;2023-05-07T04:07:31;5.43;;;3.53;;
67108;SDS011;54027;50.786;7.058;2023-05-07T04:09:56;6.55;;;3.63;;
67108;SDS011;54027;50.786;7.058;2023-05-07T04:12:21;5.82;;;4.93;;
67108;SDS011;54027;50.786;7.058;2023-05-07T04:14:47;6.97;;;4.80;;
67108;SDS011;54027;50.786;7.058;2023-05-07T04:17:12;11.38;;;5.78;;
67108;SDS011;54027;50.786;7.058;2023-05-07T04:19:38;9.38;;;5.07;;
67108;SDS011;54027;50.786;7.058;2023-05-07T04:22:03;7.05;;;4.60;;
67108;SDS011;54027;50.786;7.058;2023-05-07T04:24:31;6.07;;;4.47;;
67108;SDS011;54027;50.786;7.058;2023-05-07T04:26:58;5.38;;;4.60;;
67108;SDS011;54027;50.786;7.058;2023-05-07T04:29:23;9.52;;;5.15;;
67108;SDS011;54027;50.786;7.058;2023-05-07T04:31:49;7.88;;;4.25;;
67108;SDS011;54027;50.786;7.058;2023-05-07T04:34:14;7.85;;;4.68;;
67108;SDS011;54027;50.786;7.058;2023-05-07T04:36:40;6.70;;;4.22;;
67108;SDS011;54027;50.786;7.058;2023-05-07T04:39:07;6.47;;;4.78;;
67108;SDS011;54027;50.786;7.058;2023-05-07T04:41:32;9.85;;;5.25;;
67108;SDS011;54027;50.786;7.058;2023-05-07T04:43:58;6.75;;;4.40;;
67108;SDS011;54027;50.786;7.058;2023-05-07T04:46:24;5.50;;;3.90;;
67108;SDS011;54027;50.786;7.058;2023-05-07T04:48:50;8.20;;;4.75;;
67108;SDS011;54027;50.786;7.058;2023-05-07T04:51:15;7.15;;;4.78;;
67108;SDS011;54027;50.786;7.058;2023-05-07T04:53:41;8.93;;;4.40;;
67108;SDS011;54027;50.786;7.058;2023-05-07T04:56:08;8.13;;;5.00;;
67108;SDS011;54027;50.786;7.058;2023-05-07T04:58:33;5.95;;;4.80;;
67108;SDS011;54027;50.786;7.058;2023-05-07T05:00:58;5.07;;;3.90;;
67108;SDS011;54027;50.786;7.058;2023-05-07T05:03:25;6.82;;;4.80;;
67108;SDS011;54027;50.786;7.058;2023-05-07T05:05:51;5.40;;;3.88;;
67108;SDS011;54027;50.786;7.058;2023-05-07T05:08:17;7.05;;;4.57;;
67108;SDS011;54027;50.786;7.058;2023-05-07T05:10:42;6.45;;;5.05;;
67108;SDS011;54027;50.786;7.058;2023-05-07T05:13:08;8.00;;;4.70;;
67108;SDS011;54027;50.786;7.058;2023-05-07T05:15:34;7.35;;;4.07;;
67108;SDS011;54027;50.786;7.058;2023-05-07T05:18:00;7.68;;;4.82;;
67108;SDS011;54027;50.786;7.058;2023-05-07T05:20:25;6.72;;;3.97;;
67108;SDS011;54027;50.786;7.058;2023-05-07T05:22:51;6.72;;;4.25;;
67108;SDS011;54027;50.786;7.058;2023-05-07T05:25:16;5.32;;;4.32;;
67108;SDS011;54027;50.786;7.058;2023-05-07T05:27:42;5.43;;;4.50;;
67108;SDS011;54027;50.786;7.058;2023-05-07T05:30:07;6.32;;;3.97;;
67108;SDS011;54027;50.786;7.058;2023-05-07T05:32:32;10.13;;;4.28;;
67108;SDS011;54027;50.786;7.058;2023-05-07T05:34:58;6.50;;;4.45;;
67108;SDS011;54027;50.786;7.058;2023-05-07T05:37:23;5.65;;;3.25;;
67108;SDS011;54027;50.786;7.058;2023-05-07T05:39:49;6.57;;;3.65;;
67108;SDS011;54027;50.786;7.058;2023-05-07T05:42:15;4.53;;;3.60;;
67108;SDS011;54027;50.786;7.058;2023-05-07T05:44:40;7.45;;;3.42;;
67108;SDS011;54027;50.786;7.058;2023-05-07T05:47:06;6.28;;;3.22;;
67108;SDS011;54027;50.786;7.058;2023-05-07T05:49:31;4.72;;;3.35;;
67108;SDS011;54027;50.786;7.058;2023-05-07T05:51:56;3.88;;;3.30;;
67108;SDS011;54027;50.786;7.058;2023-05-07T05:54:22;6.95;;;3.60;;
67108;SDS011;54027;50.786;7.058;2023-05-07T05:56:47;6.63;;;3.13;;
67108;SDS011;54027;50.786;7.058;2023-05-07T05:59:12;5.40;;;3.40;;
67108;SDS011;54027;50.786;7.058;2023-05-07T06:01:38;5.90;;;3.45;;
67108;SDS011;54027;50.786;7.058;2023-05-07T06:04:04;4.30;;;3.10;;
67108;SDS011;54027;50.786;7.058;2023-05-07T06:06:29;5.28;;;3.22;;
67108;SDS011;54027;50.786;7.058;2023-05-07T06:08:56;3.65;;;3.30;;
67108;SDS011;54027;50.786;7.058;2023-05-07T06:11:21;4.88;;;3.60;;
67108;SDS011;54027;50.786;7.058;2023-05-07T06:13:46;6.60;;;3.08;;
67108;SDS011;54027;50.786;7.058;2023-05-07T06:16:12;4.40;;;3.03;;
67108;SDS011;54027;50.786;7.058;2023-05-07T06:18:37;4.75;;;3.38;;
67108;SDS011;54027;50.786;7.058;2023-05-07T06:21:02;4.80;;;2.85;;
67108;SDS011;54027;50.786;7.058;2023-05-07T06:23:28;5.95;;;3.10;;
67108;SDS011;54027;50.786;7.058;2023-05-07T06:25:53;6.15;;;3.67;;
67108;SDS011;54027;50.786;7.058;2023-05-07T06:28:18;3.25;;;2.95;;
67108;SDS011;54027;50.786;7.058;2023-05-07T06:30:44;4.38;;;2.95;;
67108;SDS011;54027;50.786;7.058;2023-05-07T06:33:10;4.47;;;3.08;;
67108;SDS011;54027;50.786;7.058;2023-05-07T06:35:35;5.88;;;3.38;;
67108;SDS011;54027;50.786;7.058;2023-05-07T06:38:00;7.05;;;2.88;;
67108;SDS011;54027;50.786;7.058;2023-05-07T06:40:26;4.25;;;2.58;;
67108;SDS011;54027;50.786;7.058;2023-05-07T06:42:51;5.32;;;2.83;;
67108;SDS011;54027;50.786;7.058;2023-05-07T06:45:17;2.72;;;2.30;;
67108;SDS011;54027;50.786;7.058;2023-05-07T06:47:42;8.30;;;3.20;;
67108;SDS011;54027;50.786;7.058;2023-05-07T06:50:08;3.67;;;2.72;;
67108;SDS011;54027;50.786;7.058;2023-05-07T06:52:34;4.35;;;3.10;;
67108;SDS011;54027;50.786;7.058;2023-05-07T06:55:00;4.72;;;2.55;;
67108;SDS011;54027;50.786;7.058;2023-05-07T06:57:26;3.40;;;2.60;;
67108;SDS011;54027;50.786;7.058;2023-05-07T06:59:51;5.53;;;2.58;;
67108;SDS011;54027;50.786;7.058;2023-05-07T07:02:16;3.70;;;2.40;;
67108;SDS011;54027;50.786;7.058;2023-05-07T07:04:42;4.35;;;2.80;;
67108;SDS011;54027;50.786;7.058;2023-05-07T07:07:07;6.05;;;2.35;;
67108;SDS011;54027;50.786;7.058;2023-05-07T07:09:32;4.28;;;2.20;;
67108;SDS011;54027;50.786;7.058;2023-05-07T07:11:58;2.75;;;2.20;;
67108;SDS011;54027;50.786;7.058;2023-05-07T07:14:23;4.82;;;1.92;;
67108;SDS011;54027;50.786;7.058;2023-05-07T07:16:49;3.78;;;2.50;;
67108;SDS011;54027;50.786;7.058;2023-05-07T07:19:14;6.80;;;2.55;;
67108;SDS011;54027;50.786;7.058;2023-05-07T07:21:42;3.72;;;2.33;;
67108;SDS011;54027;50.786;7.058;2023-05-07T07:24:08;4.53;;;2.58;;
67108;SDS011;54027;50.786;7.058;2023-05-07T07:26:33;3.83;;;2.50;;
67108;SDS011;54027;50.786;7.058;2023-05-07T07:28:58;3.35;;;2.30;;
67108;SDS011;54027;50.786;7.058;2023-05-07T07:31:24;3.42;;;2.60;;
67108;SDS011;54027;50.786;7.058;2023-05-07T07:33:49;4.75;;;2.25;;
67108;SDS011;54027;50.786;7.058;2023-05-07T07:36:15;9.40;;;2.63;;
67108;SDS011;54027;50.786;7.058;2023-05-07T07:38:40;3.97;;;2.25;;
67108;SDS011;54027;50.786;7.058;2023-05-07T07:41:07;4.72;;;2.30;;
67108;SDS011;54027;50.786;7.058;2023-05-07T07:43:33;5.50;;;2.38;;
67108;SDS011;54027;50.786;7.058;2023-05-07T07:45:59;4.57;;;2.45;;
67108;SDS011;54027;50.786;7.058;2023-05-07T07:48:24;3.15;;;2.10;;
67108;SDS011;54027;50.786;7.058;2023-05-07T07:50:50;2.95;;;2.15;;
67108;SDS011;54027;50.786;7.058;2023-05-07T07:53:18;5.32;;;2.60;;
67108;SDS011;54027;50.786;7.058;2023-05-07T07:55:44;4.38;;;2.40;;
67108;SDS011;54027;50.786;7.058;2023-05-07T07:58:09;4.78;;;2.65;;
67108;SDS011;54027;50.786;7.058;2023-05-07T08:00:34;5.85;;;2.30;;
67108;SDS011;54027;50.786;7.058;2023-05-07T08:03:00;4.70;;;2.30;;
67108;SDS011;54027;50.786;7.058;2023-05-07T08:05:28;4.38;;;2.10;;
67108;SDS011;54027;50.786;7.058;2023-05-07T08:07:53;3.67;;;2.25;;
67108;SDS011;54027;50.786;7.058;2023-05-07T08:10:19;4.03;;;2.03;;
67108;SDS011;54027;50.786;7.058;2023-05-07T08:12:48;3.05;;;1.70;;
67108;SDS011;54027;50.786;7.058;2023-05-07T08:15:14;4.30;;;2.17;;
67108;SDS011;54027;50.786;7.058;2023-05-07T08:17:40;3.50;;;2.10;;
67108;SDS011;54027;50.786;7.058;2023-05-07T08:20:05;2.78;;;1.67;;
67108;SDS011;54027;50.786;7.058;2023-05-07T08:22:31;2.38;;;1.85;;
67108;SDS011;54027;50.786;7.058;2023-05-07T08:24:57;5.57;;;2.47;;
67108;SDS011;54027;50.786;7.058;2023-05-07T08:27:22;6.60;;;2.05;;
67108;SDS011;54027;50.786;7.058;2023-05-07T08:29:47;3.40;;;2.10;;
67108;SDS011;54027;50.786;7.058;2023-05-07T08:32:13;3.67;;;1.92;;
67108;SDS011;54027;50.786;7.058;2023-05-07T08:34:39;3.92;;;2.20;;
67108;SDS011;54027;50.786;7.058;2023-05-07T08:37:05;2.05;;;1.80;;
67108;SDS011;54027;50.786;7.058;2023-05-07T08:39:30;3.53;;;2.22;;
67108;SDS011;54027;50.786;7.058;2023-05-07T08:41:55;4.10;;;1.98;;
67108;SDS011;54027;50.786;7.058;2023-05-07T08:44:26;6.03;;;2.47;;
67108;SDS011;54027;50.786;7.058;2023-05-07T08:46:56;3.72;;;2.15;;
67108;SDS011;54027;50.786;7.058;2023-05-07T08:49:23;5.15;;;1.90;;
67108;SDS011;54027;50.786;7.058;2023-05-07T08:51:48;4.22;;;2.50;;
67108;SDS011;54027;50.786;7.058;2023-05-07T08:54:17;3.17;;;2.00;;
67108;SDS011;54027;50.786;7.058;2023-05-07T08:56:44;2.67;;;1.80;;
67108;SDS011;54027;50.786;7.058;2023-05-07T08:59:10;4.78;;;2.10;;
67108;SDS011;54027;50.786;7.058;2023-05-07T09:01:35;3.63;;;2.00;;
67108;SDS011;54027;50.786;7.058;2023-05-07T09:04:01;4.13;;;2.20;;
67108;SDS011;54027;50.786;7.058;2023-05-07T09:06:26;3.20;;;2.08;;
67108;SDS011;54027;50.786;7.058;2023-05-07T09:08:52;4.15;;;2.40;;
67108;SDS011;54027;50.786;7.058;2023-05-07T09:11:19;3.42;;;2.45;;
67108;SDS011;54027;50.786;7.058;2023-05-07T09:13:48;2.67;;;2.17;;
67108;SDS011;54027;50.786;7.058;2023-05-07T09:16:19;2.95;;;2.10;;
67108;SDS011;54027;50.786;7.058;2023-05-07T09:18:46;3.65;;;2.20;;
67108;SDS011;54027;50.786;7.058;2023-05-07T09:21:15;3.00;;;2.03;;
67108;SDS011;54027;50.786;7.058;2023-05-07T09:23:43;4.32;;;2.30;;
67108;SDS011;54027;50.786;7.058;2023-05-07T09:26:08;2.72;;;2.00;;
67108;SDS011;54027;50.786;7.058;2023-05-07T09:28:39;2.97;;;2.22;;
67108;SDS011;54027;50.786;7.058;2023-05-07T09:31:06;3.97;;;2.10;;
67108;SDS011;54027;50.786;7.058;2023-05-07T09:33:32;3.30;;;2.10;;
67108;SDS011;54027;50.786;7.058;2023-05-07T09:35:57;4.43;;;2.22;;
67108;SDS011;54027;50.786;7.058;2023-05-07T09:38:23;4.07;;;2.03;;
67108;SDS011;54027;50.786;7.058;2023-05-07T09:40:53;2.75;;;1.90;;
67108;SDS011;54027;50.786;7.058;2023-05-07T09:43:38;3.00;;;1.90;;
67108;SDS011;54027;50.786;7.058;2023-05-07T09:46:14;2.67;;;1.98;;
67108;SDS011;54027;50.786;7.058;2023-05-07T09:48:42;3.35;;;1.80;;
67108;SDS011;54027;50.786;7.058;2023-05-07T09:54:16;2.60;;;1.90;;
67108;SDS011;54027;50.786;7.058;2023-05-07T09:56:43;4.78;;;2.10;;
67108;SDS011;54027;50.786;7.058;2023-05-07T09:59:12;4.97;;;2.20;;
67108;SDS011;54027;50.786;7.058;2023-05-07T10:01:40;4.72;;;2.20;;
67108;SDS011;54027;50.786;7.058;2023-05-07T10:04:07;6.30;;;2.38;;
67108;SDS011;54027;50.786;7.058;2023-05-07T10:06:35;2.75;;;2.17;;
67108;SDS011;54027;50.786;7.058;2023-05-07T10:09:02;3.33;;;2.22;;
67108;SDS011;54027;50.786;7.058;2023-05-07T10:11:30;3.35;;;2.53;;
67108;SDS011;54027;50.786;7.058;2023-05-07T10:13:58;4.15;;;2.22;;
67108;SDS011;54027;50.786;7.058;2023-05-07T10:16:23;3.45;;;1.77;;
67108;SDS011;54027;50.786;7.058;2023-05-07T10:18:50;2.38;;;1.90;;
67108;SDS011;54027;50.786;7.058;2023-05-07T10:21:20;3.22;;;2.22;;
67108;SDS011;54027;50.786;7.058;2023-05-07T10:23:52;6.13;;;3.00;;
67108;SDS011;54027;50.786;7.058;2023-05-07T10:26:23;2.72;;;1.77;;
67108;SDS011;54027;50.786;7.058;2023-05-07T10:28:50;3.42;;;1.90;;
67108;SDS011;54027;50.786;7.058;2023-05-07T10:34:34;4.22;;;2.00;;
67108;SDS011;54027;50.786;7.058;2023-05-07T10:37:04;4.75;;;2.00;;
67108;SDS011;54027;50.786;7.058;2023-05-07T10:39:30;4.25;;;2.03;;
67108;SDS011;54027;50.786;7.058;2023-05-07T10:41:56;3.78;;;2.20;;
67108;SDS011;54027;50.786;7.058;2023-05-07T10:44:28;3.17;;;2.35;;
67108;SDS011;54027;50.786;7.058;2023-05-07T10:47:13;4.32;;;2.30;;
67108;SDS011;54027;50.786;7.058;2023-05-07T10:52:15;3.45;;;2.05;;
67108;SDS011;54027;50.786;7.058;2023-05-07T10:55:18;2.67;;;1.80;;
67108;SDS011;54027;50.786;7.058;2023-05-07T10:57:40;4.20;;;2.08;;
67108;SDS011;54027;50.786;7.058;2023-05-07T11:05:27;3.55;;;2.05;;
67108;SDS011;54027;50.786;7.058;2023-05-07T11:08:00;5.13;;;2.10;;
67108;SDS011;54027;50.786;7.058;2023-05-07T11:13:15;2.80;;;1.80;;
67108;SDS011;54027;50.786;7.058;2023-05-07T11:15:42;3.70;;;2.00;;
67108;SDS011;54027;50.786;7.058;2023-05-07T11:18:11;5.75;;;2.97;;
67108;SDS011;54027;50.786;7.058;2023-05-07T11:28:28;3.92;;;1.83;;
67108;SDS011;54027;50.786;7.058;2023-05-07T11:30:55;2.53;;;1.88;;
67108;SDS011;54027;50.786;7.058;2023-05-07T11:33:21;2.90;;;1.75;;
67108;SDS011;54027;50.786;7.058;2023-05-07T11:35:47;3.00;;;1.58;;
67108;SDS011;54027;50.786;7.058;2023-05-07T11:38:13;4.95;;;2.00;;
67108;SDS011;54027;50.786;7.058;2023-05-07T11:40:51;3.40;;;2.00;;
67108;SDS011;54027;50.786;7.058;2023-05-07T11:43:18;4.28;;;1.90;;
67108;SDS011;54027;50.786;7.058;2023-05-07T11:45:44;2.10;;;1.38;;
67108;SDS011;54027;50.786;7.058;2023-05-07T11:48:11;4.55;;;1.60;;
67108;SDS011;54027;50.786;7.058;2023-05-07T11:50:49;3.22;;;1.52;;
67108;SDS011;54027;50.786;7.058;2023-05-07T11:53:16;3.85;;;1.67;;
67108;SDS011;54027;50.786;7.058;2023-05-07T11:55:42;2.25;;;1.52;;
67108;SDS011;54027;50.786;7.058;2023-05-07T11:58:09;5.32;;;1.50;;
67108;SDS011;54027;50.786;7.058;2023-05-07T12:00:36;4.13;;;1.95;;
67108;SDS011;54027;50.786;7.058;2023-05-07T12:03:04;5.90;;;1.90;;
67108;SDS011;54027;50.786;7.058;2023-05-07T12:05:30;2.20;;;1.20;;
67108;SDS011;54027;50.786;7.058;2023-05-07T12:07:58;3.70;;;1.30;;
67108;SDS011;54027;50.786;7.058;2023-05-07T12:10:24;1.70;;;1.35;;
67108;SDS011;54027;50.786;7.058;2023-05-07T12:12:50;7.93;;;4.45;;
67108;SDS011;54027;50.786;7.058;2023-05-07T12:15:16;7.38;;;3.38;;
67108;SDS011;54027;50.786;7.058;2023-05-07T12:17:42;15.07;;;8.20;;
67108;SDS011;54027;50.786;7.058;2023-05-07T12:20:08;4.55;;;1.92;;
67108;SDS011;54027;50.786;7.058;2023-05-07T12:22:35;3.80;;;2.25;;
67108;SDS011;54027;50.786;7.058;2023-05-07T12:25:01;4.05;;;1.45;;
67108;SDS011;54027;50.786;7.058;2023-05-07T12:27:27;2.08;;;1.48;;
67108;SDS011;54027;50.786;7.058;2023-05-07T12:29:53;2.40;;;1.58;;
67108;SDS011;54027;50.786;7.058;2023-05-07T12:32:21;3.00;;;1.30;;
67108;SDS011;54027;50.786;7.058;2023-05-07T12:34:49;2.85;;;1.35;;
67108;SDS011;54027;50.786;7.058;2023-05-07T12:37:16;2.47;;;1.45;;
67108;SDS011;54027;50.786;7.058;2023-05-07T12:39:47;4.93;;;2.03;;
67108;SDS011;54027;50.786;7.058;2023-05-07T12:42:16;4.03;;;1.50;;
67108;SDS011;54027;50.786;7.058;2023-05-07T12:44:48;3.53;;;1.60;;
67108;SDS011;54027;50.786;7.058;2023-05-07T12:47:14;3.10;;;2.00;;
67108;SDS011;54027;50.786;7.058;2023-05-07T12:49:40;4.18;;;1.90;;
67108;SDS011;54027;50.786;7.058;2023-05-07T12:52:06;2.78;;;1.90;;
67108;SDS011;54027;50.786;7.058;2023-05-07T12:54:32;3.42;;;1.70;;
67108;SDS011;54027;50.786;7.058;2023-05-07T12:57:02;5.78;;;2.53;;
67108;SDS011;54027;50.786;7.058;2023-05-07T12:59:35;4.07;;;2.40;;
67108;SDS011;54027;50.786;7.058;2023-05-07T13:02:02;4.53;;;2.40;;
67108;SDS011;54027;50.786;7.058;2023-05-07T13:04:27;7.07;;;2.60;;
67108;SDS011;54027;50.786;7.058;2023-05-07T13:06:52;3.13;;;1.90;;
67108;SDS011;54027;50.786;7.058;2023-05-07T13:09:18;4.00;;;1.67;;
67108;SDS011;54027;50.786;7.058;2023-05-07T13:11:43;5.18;;;2.15;;
67108;SDS011;54027;50.786;7.058;2023-05-07T13:14:08;5.72;;;2.47;;
67108;SDS011;54027;50.786;7.058;2023-05-07T13:16:34;5.38;;;2.30;;
67108;SDS011;54027;50.786;7.058;2023-05-07T13:18:59;4.13;;;2.00;;
67108;SDS011;54027;50.786;7.058;2023-05-07T13:21:24;5.22;;;2.63;;
67108;SDS011;54027;50.786;7.058;2023-05-07T13:23:50;4.00;;;2.42;;
67108;SDS011;54027;50.786;7.058;2023-05-07T13:26:15;3.97;;;2.35;;
67108;SDS011;54027;50.786;7.058;2023-05-07T13:28:41;5.40;;;2.33;;
67108;SDS011;54027;50.786;7.058;2023-05-07T13:31:06;5.65;;;3.17;;
67108;SDS011;54027;50.786;7.058;2023-05-07T13:33:32;6.25;;;2.95;;
67108;SDS011;54027;50.786;7.058;2023-05-07T13:35:57;5.30;;;2.63;;
67108;SDS011;54027;50.786;7.058;2023-05-07T13:38:23;9.15;;;2.97;;
67108;SDS011;54027;50.786;7.058;2023-05-07T13:40:48;4.15;;;2.60;;
67108;SDS011;54027;50.786;7.058;2023-05-07T13:43:13;3.20;;;2.55;;
67108;SDS011;54027;50.786;7.058;2023-05-07T13:45:39;8.38;;;2.75;;
67108;SDS011;54027;50.786;7.058;2023-05-07T13:48:05;8.88;;;3.03;;
67108;SDS011;54027;50.786;7.058;2023-05-07T13:50:30;4.72;;;3.05;;
67108;SDS011;54027;50.786;7.058;2023-05-07T13:52:56;4.35;;;2.92;;
67108;SDS011;54027;50.786;7.058;2023-05-07T13:55:22;5.07;;;2.60;;
67108;SDS011;54027;50.786;7.058;2023-05-07T13:57:54;3.00;;;2.53;;
67108;SDS011;54027;50.786;7.058;2023-05-07T14:00:24;5.22;;;2.58;;
67108;SDS011;54027;50.786;7.058;2023-05-07T14:02:51;4.72;;;3.40;;
67108;SDS011;54027;50.786;7.058;2023-05-07T14:05:16;5.38;;;3.10;;
67108;SDS011;54027;50.786;7.058;2023-05-07T14:07:42;5.50;;;3.40;;
67108;SDS011;54027;50.786;7.058;2023-05-07T14:10:07;4.93;;;3.58;;
67108;SDS011;54027;50.786;7.058;2023-05-07T14:12:34;3.47;;;2.67;;
67108;SDS011;54027;50.786;7.058;2023-05-07T14:14:59;4.28;;;3.20;;
67108;SDS011;54027;50.786;7.058;2023-05-07T14:17:25;6.55;;;3.30;;
67108;SDS011;54027;50.786;7.058;2023-05-07T14:19:52;4.97;;;2.30;;
67108;SDS011;54027;50.786;7.058;2023-05-07T14:22:21;3.38;;;2.38;;
67108;SDS011;54027;50.786;7.058;2023-05-07T14:24:47;4.30;;;2.83;;
67108;SDS011;54027;50.786;7.058;2023-05-07T14:27:13;3.97;;;2.70;;
67108;SDS011;54027;50.786;7.058;2023-05-07T14:29:39;6.53;;;2.88;;
67108;SDS011;54027;50.786;7.058;2023-05-07T14:32:04;3.10;;;2.22;;
67108;SDS011;54027;50.786;7.058;2023-05-07T14:34:30;4.13;;;2.10;;
67108;SDS011;54027;50.786;7.058;2023-05-07T14:36:56;3.15;;;2.28;;
67108;SDS011;54027;50.786;7.058;2023-05-07T14:39:21;3.72;;;1.83;;
67108;SDS011;54027;50.786;7.058;2023-05-07T14:41:47;2.70;;;2.10;;
67108;SDS011;54027;50.786;7.058;2023-05-07T14:44:12;5.53;;;2.50;;
67108;SDS011;54027;50.786;7.058;2023-05-07T14:46:38;3.08;;;2.38;;
67108;SDS011;54027;50.786;7.058;2023-05-07T14:49:03;3.72;;;2.20;;
67108;SDS011;54027;50.786;7.058;2023-05-07T14:51:29;5.93;;;2.50;;
67108;SDS011;54027;50.786;7.058;2023-05-07T14:53:55;4.28;;;2.88;;
67108;SDS011;54027;50.786;7.058;2023-05-07T14:56:21;5.85;;;2.63;;
67108;SDS011;54027;50.786;7.058;2023-05-07T14:58:46;5.40;;;3.15;;
67108;SDS011;54027;50.786;7.058;2023-05-07T15:01:13;4.70;;;2.53;;
67108;SDS011;54027;50.786;7.058;2023-05-07T15:03:39;5.38;;;3.47;;
67108;SDS011;54027;50.786;7.058;2023-05-07T15:06:04;5.32;;;3.28;;
67108;SDS011;54027;50.786;7.058;2023-05-07T15:08:30;5.25;;;3.67;;